Phoenix, Arizona
Traffic Map
Current Weather Conditions
Phoenix, Arizona
Scattered Clouds
Scattered Clouds
71°
Feels Like: 71°
Wind Chill: 71° Ceiling: Unl
Heat Index: 71° Visibility: 10mi
Dew Point: 30° Wind: 0mph
Humidity: 22% Direction: ° ()
Pressure: 30.11in Gusts: 0mph
Raw Report DataKPHX 110451Z 00000KT 10SM SCT250 22/M01 A3011 RMK AO2 SLP183 T02171011
Traffic Incident Summary
Active as of:
Severity:
Category:
InformationThere was an issue retrieving the traffic information for this location. Please try a different location or try again shortly.
Advertisements
Track Severe Weather on mobile